sensor_id;sensor_type;location;lat;lon;timestamp;temperature;humidity
68274;SHT30;55104;47.356;19.448;2022-08-16T00:02:09;21.02;73.82
68274;SHT30;55104;47.356;19.448;2022-08-16T00:05:14;20.92;73.23
68274;SHT30;55104;47.356;19.448;2022-08-16T00:08:17;20.86;72.95
68274;SHT30;55104;47.356;19.448;2022-08-16T00:11:39;20.75;72.54
68274;SHT30;55104;47.356;19.448;2022-08-16T00:14:42;20.81;71.31
68274;SHT30;55104;47.356;19.448;2022-08-16T00:17:46;20.95;69.23
68274;SHT30;55104;47.356;19.448;2022-08-16T00:20:58;21.09;68.43
68274;SHT30;55104;47.356;19.448;2022-08-16T00:24:00;21.12;68.50
68274;SHT30;55104;47.356;19.448;2022-08-16T00:27:05;21.18;68.32
68274;SHT30;55104;47.356;19.448;2022-08-16T00:30:11;21.10;69.05
68274;SHT30;55104;47.356;19.448;2022-08-16T00:33:29;21.02;69.90
68274;SHT30;55104;47.356;19.448;2022-08-16T00:36:31;20.93;69.91
68274;SHT30;55104;47.356;19.448;2022-08-16T00:39:33;20.86;70.40
68274;SHT30;55104;47.356;19.448;2022-08-16T00:42:35;20.82;69.74
68274;SHT30;55104;47.356;19.448;2022-08-16T00:45:56;20.99;67.91
68274;SHT30;55104;47.356;19.448;2022-08-16T00:49:07;21.00;68.09
68274;SHT30;55104;47.356;19.448;2022-08-16T00:52:20;21.03;67.87
68274;SHT30;55104;47.356;19.448;2022-08-16T00:55:32;20.98;68.40
68274;SHT30;55104;47.356;19.448;2022-08-16T00:58:42;21.00;68.34
68274;SHT30;55104;47.356;19.448;2022-08-16T01:01:47;21.06;67.97
68274;SHT30;55104;47.356;19.448;2022-08-16T01:04:49;21.09;68.14
68274;SHT30;55104;47.356;19.448;2022-08-16T01:08:13;21.14;67.87
68274;SHT30;55104;47.356;19.448;2022-08-16T01:11:37;21.13;68.07
68274;SHT30;55104;47.356;19.448;2022-08-16T01:14:57;21.12;68.17
68274;SHT30;55104;47.356;19.448;2022-08-16T01:18:02;21.13;67.91
68274;SHT30;55104;47.356;19.448;2022-08-16T01:21:34;21.07;68.51
68274;SHT30;55104;47.356;19.448;2022-08-16T01:24:44;21.05;69.19
68274;SHT30;55104;47.356;19.448;2022-08-16T01:28:00;20.96;70.03
68274;SHT30;55104;47.356;19.448;2022-08-16T01:31:04;20.85;70.25
68274;SHT30;55104;47.356;19.448;2022-08-16T01:34:11;20.71;70.62
68274;SHT30;55104;47.356;19.448;2022-08-16T01:37:26;20.68;71.42
68274;SHT30;55104;47.356;19.448;2022-08-16T01:40:39;20.52;71.98
68274;SHT30;55104;47.356;19.448;2022-08-16T01:43:43;20.43;72.32
68274;SHT30;55104;47.356;19.448;2022-08-16T01:46:54;20.34;72.65
68274;SHT30;55104;47.356;19.448;2022-08-16T01:49:59;20.26;72.91
68274;SHT30;55104;47.356;19.448;2022-08-16T01:53:21;20.23;72.93
68274;SHT30;55104;47.356;19.448;2022-08-16T01:56:45;20.21;72.91
68274;SHT30;55104;47.356;19.448;2022-08-16T01:59:50;20.13;73.10
68274;SHT30;55104;47.356;19.448;2022-08-16T02:02:56;20.02;73.22
68274;SHT30;55104;47.356;19.448;2022-08-16T02:05:58;19.99;73.66
68274;SHT30;55104;47.356;19.448;2022-08-16T02:09:02;19.90;73.96
68274;SHT30;55104;47.356;19.448;2022-08-16T02:12:07;19.90;74.24
68274;SHT30;55104;47.356;19.448;2022-08-16T02:15:31;19.86;74.43
68274;SHT30;55104;47.356;19.448;2022-08-16T02:18:43;19.79;74.82
68274;SHT30;55104;47.356;19.448;2022-08-16T02:21:49;19.76;75.03
68274;SHT30;55104;47.356;19.448;2022-08-16T02:25:14;19.68;75.37
68274;SHT30;55104;47.356;19.448;2022-08-16T02:28:17;19.61;75.61
68274;SHT30;55104;47.356;19.448;2022-08-16T02:31:20;19.57;76.07
68274;SHT30;55104;47.356;19.448;2022-08-16T02:34:43;19.53;76.34
68274;SHT30;55104;47.356;19.448;2022-08-16T02:37:46;19.44;76.17
68274;SHT30;55104;47.356;19.448;2022-08-16T02:41:00;19.40;76.59
68274;SHT30;55104;47.356;19.448;2022-08-16T02:44:13;19.31;77.04
68274;SHT30;55104;47.356;19.448;2022-08-16T02:47:20;19.28;77.26
68274;SHT30;55104;47.356;19.448;2022-08-16T02:50:28;19.26;77.42
68274;SHT30;55104;47.356;19.448;2022-08-16T02:53:51;19.20;78.08
68274;SHT30;55104;47.356;19.448;2022-08-16T02:56:54;19.16;78.16
68274;SHT30;55104;47.356;19.448;2022-08-16T02:59:59;19.10;78.12
68274;SHT30;55104;47.356;19.448;2022-08-16T03:03:04;19.00;78.44
68274;SHT30;55104;47.356;19.448;2022-08-16T03:06:11;18.98;78.39
68274;SHT30;55104;47.356;19.448;2022-08-16T03:09:41;18.92;78.38
68274;SHT30;55104;47.356;19.448;2022-08-16T03:12:47;18.89;78.67
68274;SHT30;55104;47.356;19.448;2022-08-16T03:15:56;18.71;79.72
68274;SHT30;55104;47.356;19.448;2022-08-16T03:18:59;18.61;79.64
68274;SHT30;55104;47.356;19.448;2022-08-16T03:22:03;18.56;79.57
68274;SHT30;55104;47.356;19.448;2022-08-16T03:25:08;18.62;79.30
68274;SHT30;55104;47.356;19.448;2022-08-16T03:28:12;18.64;79.59
68274;SHT30;55104;47.356;19.448;2022-08-16T03:31:22;18.69;79.34
68274;SHT30;55104;47.356;19.448;2022-08-16T03:34:25;18.71;79.05
68274;SHT30;55104;47.356;19.448;2022-08-16T03:37:28;18.71;78.87
68274;SHT30;55104;47.356;19.448;2022-08-16T03:40:54;18.66;79.06
68274;SHT30;55104;47.356;19.448;2022-08-16T03:44:01;18.72;79.60
68274;SHT30;55104;47.356;19.448;2022-08-16T03:47:09;18.66;79.45
68274;SHT30;55104;47.356;19.448;2022-08-16T03:50:13;18.64;79.54
68274;SHT30;55104;47.356;19.448;2022-08-16T03:53:29;18.65;79.53
68274;SHT30;55104;47.356;19.448;2022-08-16T03:56:40;18.65;79.33
68274;SHT30;55104;47.356;19.448;2022-08-16T04:00:18;18.75;79.15
68274;SHT30;55104;47.356;19.448;2022-08-16T04:03:43;18.71;79.24
68274;SHT30;55104;47.356;19.448;2022-08-16T04:06:47;18.75;79.02
68274;SHT30;55104;47.356;19.448;2022-08-16T04:09:52;18.83;78.91
68274;SHT30;55104;47.356;19.448;2022-08-16T04:12:55;18.92;79.04
68274;SHT30;55104;47.356;19.448;2022-08-16T04:16:05;19.04;79.15
68274;SHT30;55104;47.356;19.448;2022-08-16T04:19:08;19.16;79.06
68274;SHT30;55104;47.356;19.448;2022-08-16T04:22:12;19.31;78.37
68274;SHT30;55104;47.356;19.448;2022-08-16T04:25:24;19.44;77.74
68274;SHT30;55104;47.356;19.448;2022-08-16T04:28:27;19.59;76.31
68274;SHT30;55104;47.356;19.448;2022-08-16T04:31:50;19.75;75.84
68274;SHT30;55104;47.356;19.448;2022-08-16T04:34:58;19.92;75.34
68274;SHT30;55104;47.356;19.448;2022-08-16T04:38:07;19.97;75.14
68274;SHT30;55104;47.356;19.448;2022-08-16T04:41:22;20.16;74.82
68274;SHT30;55104;47.356;19.448;2022-08-16T04:44:35;20.27;75.01
68274;SHT30;55104;47.356;19.448;2022-08-16T04:47:58;20.41;75.27
68274;SHT30;55104;47.356;19.448;2022-08-16T04:51:10;20.55;74.46
68274;SHT30;55104;47.356;19.448;2022-08-16T04:54:18;20.68;74.14
68274;SHT30;55104;47.356;19.448;2022-08-16T04:57:20;20.78;74.72
68274;SHT30;55104;47.356;19.448;2022-08-16T05:00:30;20.92;74.67
68274;SHT30;55104;47.356;19.448;2022-08-16T05:03:55;21.12;73.83
68274;SHT30;55104;47.356;19.448;2022-08-16T05:07:03;21.26;72.49
68274;SHT30;55104;47.356;19.448;2022-08-16T05:10:32;21.39;72.47
68274;SHT30;55104;47.356;19.448;2022-08-16T05:13:36;21.50;72.11
68274;SHT30;55104;47.356;19.448;2022-08-16T05:16:45;21.68;71.04
68274;SHT30;55104;47.356;19.448;2022-08-16T05:19:53;21.92;70.57
68274;SHT30;55104;47.356;19.448;2022-08-16T05:23:03;22.10;68.93
68274;SHT30;55104;47.356;19.448;2022-08-16T05:26:08;22.26;68.21
68274;SHT30;55104;47.356;19.448;2022-08-16T05:29:21;22.44;67.39
68274;SHT30;55104;47.356;19.448;2022-08-16T05:32:39;22.63;65.84
68274;SHT30;55104;47.356;19.448;2022-08-16T05:35:49;22.81;64.35
68274;SHT30;55104;47.356;19.448;2022-08-16T05:39:29;23.06;63.79
68274;SHT30;55104;47.356;19.448;2022-08-16T05:42:34;23.13;64.39
68274;SHT30;55104;47.356;19.448;2022-08-16T05:45:38;23.24;62.66
68274;SHT30;55104;47.356;19.448;2022-08-16T05:48:44;23.33;62.93
68274;SHT30;55104;47.356;19.448;2022-08-16T05:51:56;23.43;62.34
68274;SHT30;55104;47.356;19.448;2022-08-16T05:55:03;23.53;61.21
68274;SHT30;55104;47.356;19.448;2022-08-16T05:58:08;23.61;60.72
68274;SHT30;55104;47.356;19.448;2022-08-16T06:01:32;23.63;60.77
68274;SHT30;55104;47.356;19.448;2022-08-16T06:04:39;23.66;61.11
68274;SHT30;55104;47.356;19.448;2022-08-16T06:07:50;23.77;59.83
68274;SHT30;55104;47.356;19.448;2022-08-16T06:11:11;23.88;60.57
68274;SHT30;55104;47.356;19.448;2022-08-16T06:14:17;23.91;60.02
68274;SHT30;55104;47.356;19.448;2022-08-16T06:17:20;24.04;61.57
68274;SHT30;55104;47.356;19.448;2022-08-16T06:20:43;24.05;60.09
68274;SHT30;55104;47.356;19.448;2022-08-16T06:23:57;24.23;60.77
68274;SHT30;55104;47.356;19.448;2022-08-16T06:27:04;24.53;57.65
68274;SHT30;55104;47.356;19.448;2022-08-16T06:30:10;24.74;57.34
68274;SHT30;55104;47.356;19.448;2022-08-16T06:33:21;24.84;56.36
68274;SHT30;55104;47.356;19.448;2022-08-16T06:36:25;25.07;56.89
68274;SHT30;55104;47.356;19.448;2022-08-16T06:39:35;25.14;53.81
68274;SHT30;55104;47.356;19.448;2022-08-16T06:43:17;25.41;54.62
68274;SHT30;55104;47.356;19.448;2022-08-16T06:46:35;25.58;54.42
68274;SHT30;55104;47.356;19.448;2022-08-16T06:49:49;25.70;54.73
68274;SHT30;55104;47.356;19.448;2022-08-16T06:52:59;25.88;52.28
68274;SHT30;55104;47.356;19.448;2022-08-16T06:56:22;26.05;52.87
68274;SHT30;55104;47.356;19.448;2022-08-16T06:59:50;26.29;51.15
68274;SHT30;55104;47.356;19.448;2022-08-16T07:03:05;26.38;50.10
68274;SHT30;55104;47.356;19.448;2022-08-16T07:06:27;26.49;50.80
68274;SHT30;55104;47.356;19.448;2022-08-16T07:09:35;26.68;50.97
68274;SHT30;55104;47.356;19.448;2022-08-16T07:12:37;26.94;50.31
68274;SHT30;55104;47.356;19.448;2022-08-16T07:16:00;27.30;49.84
68274;SHT30;55104;47.356;19.448;2022-08-16T07:19:03;27.39;50.39
68274;SHT30;55104;47.356;19.448;2022-08-16T07:22:10;27.61;49.47
68274;SHT30;55104;47.356;19.448;2022-08-16T07:25:33;27.69;48.91
68274;SHT30;55104;47.356;19.448;2022-08-16T07:28:41;27.69;49.31
68274;SHT30;55104;47.356;19.448;2022-08-16T07:31:46;27.79;49.18
68274;SHT30;55104;47.356;19.448;2022-08-16T07:34:51;27.97;48.48
68274;SHT30;55104;47.356;19.448;2022-08-16T07:37:53;28.13;48.57
68274;SHT30;55104;47.356;19.448;2022-08-16T07:41:07;28.31;46.61
68274;SHT30;55104;47.356;19.448;2022-08-16T07:44:15;28.59;45.64
68274;SHT30;55104;47.356;19.448;2022-08-16T07:47:20;28.79;47.34
68274;SHT30;55104;47.356;19.448;2022-08-16T07:50:32;28.80;47.41
68274;SHT30;55104;47.356;19.448;2022-08-16T07:53:54;28.92;47.18
68274;SHT30;55104;47.356;19.448;2022-08-16T07:57:10;29.33;45.59
68274;SHT30;55104;47.356;19.448;2022-08-16T08:00:15;29.47;43.87
68274;SHT30;55104;47.356;19.448;2022-08-16T08:03:23;29.59;43.38
68274;SHT30;55104;47.356;19.448;2022-08-16T08:06:38;29.83;44.60
68274;SHT30;55104;47.356;19.448;2022-08-16T08:09:46;29.86;42.20
68274;SHT30;55104;47.356;19.448;2022-08-16T08:12:52;30.16;44.43
68274;SHT30;55104;47.356;19.448;2022-08-16T08:16:00;30.18;42.22
68274;SHT30;55104;47.356;19.448;2022-08-16T08:19:04;30.34;42.70
68274;SHT30;55104;47.356;19.448;2022-08-16T08:22:08;30.57;42.30
68274;SHT30;55104;47.356;19.448;2022-08-16T08:25:28;30.71;41.47
68274;SHT30;55104;47.356;19.448;2022-08-16T08:28:51;31.17;40.50
68274;SHT30;55104;47.356;19.448;2022-08-16T08:31:55;31.48;39.01
68274;SHT30;55104;47.356;19.448;2022-08-16T08:34:59;31.85;37.65
68274;SHT30;55104;47.356;19.448;2022-08-16T08:38:06;31.77;39.75
68274;SHT30;55104;47.356;19.448;2022-08-16T08:41:14;31.67;37.66
68274;SHT30;55104;47.356;19.448;2022-08-16T08:44:24;31.62;37.79
68274;SHT30;55104;47.356;19.448;2022-08-16T08:47:36;31.68;37.45
68274;SHT30;55104;47.356;19.448;2022-08-16T08:50:42;31.78;36.96
68274;SHT30;55104;47.356;19.448;2022-08-16T08:53:51;31.75;38.75
68274;SHT30;55104;47.356;19.448;2022-08-16T08:57:01;31.91;37.88
68274;SHT30;55104;47.356;19.448;2022-08-16T09:00:17;31.91;38.23
68274;SHT30;55104;47.356;19.448;2022-08-16T09:03:29;32.17;37.38
68274;SHT30;55104;47.356;19.448;2022-08-16T09:06:34;32.23;37.41
68274;SHT30;55104;47.356;19.448;2022-08-16T09:09:44;32.41;38.22
68274;SHT30;55104;47.356;19.448;2022-08-16T09:12:49;32.60;36.66
68274;SHT30;55104;47.356;19.448;2022-08-16T09:16:01;32.84;35.37
68274;SHT30;55104;47.356;19.448;2022-08-16T09:19:05;32.70;34.42
68274;SHT30;55104;47.356;19.448;2022-08-16T09:22:12;32.85;35.16
68274;SHT30;55104;47.356;19.448;2022-08-16T09:25:23;33.07;35.50
68274;SHT30;55104;47.356;19.448;2022-08-16T09:28:27;33.11;36.05
68274;SHT30;55104;47.356;19.448;2022-08-16T09:31:56;32.95;34.57
68274;SHT30;55104;47.356;19.448;2022-08-16T09:34:59;32.94;35.79
68274;SHT30;55104;47.356;19.448;2022-08-16T09:38:02;33.09;35.24
68274;SHT30;55104;47.356;19.448;2022-08-16T09:41:24;33.16;33.87
68274;SHT30;55104;47.356;19.448;2022-08-16T09:44:28;33.32;34.06
68274;SHT30;55104;47.356;19.448;2022-08-16T09:47:51;33.45;34.74
68274;SHT30;55104;47.356;19.448;2022-08-16T09:50:58;33.64;34.51
68274;SHT30;55104;47.356;19.448;2022-08-16T09:54:02;33.96;33.56
68274;SHT30;55104;47.356;19.448;2022-08-16T09:57:05;34.05;34.45
68274;SHT30;55104;47.356;19.448;2022-08-16T10:00:15;33.54;34.25
68274;SHT30;55104;47.356;19.448;2022-08-16T10:03:37;33.76;33.05
68274;SHT30;55104;47.356;19.448;2022-08-16T10:07:00;33.94;33.01
68274;SHT30;55104;47.356;19.448;2022-08-16T10:10:14;33.82;32.25
68274;SHT30;55104;47.356;19.448;2022-08-16T10:13:32;34.22;32.55
68274;SHT30;55104;47.356;19.448;2022-08-16T10:16:39;34.21;32.58
68274;SHT30;55104;47.356;19.448;2022-08-16T10:19:41;34.11;31.87
68274;SHT30;55104;47.356;19.448;2022-08-16T10:22:44;34.07;32.79
68274;SHT30;55104;47.356;19.448;2022-08-16T10:25:46;34.56;31.48
68274;SHT30;55104;47.356;19.448;2022-08-16T10:29:09;34.46;31.87
68274;SHT30;55104;47.356;19.448;2022-08-16T10:32:11;34.45;30.97
68274;SHT30;55104;47.356;19.448;2022-08-16T10:35:22;34.82;31.54
68274;SHT30;55104;47.356;19.448;2022-08-16T10:38:35;34.91;30.79
68274;SHT30;55104;47.356;19.448;2022-08-16T10:41:38;34.74;30.81
68274;SHT30;55104;47.356;19.448;2022-08-16T10:44:40;35.17;29.78
68274;SHT30;55104;47.356;19.448;2022-08-16T10:47:43;35.13;30.82
68274;SHT30;55104;47.356;19.448;2022-08-16T10:50:49;35.28;29.14
68274;SHT30;55104;47.356;19.448;2022-08-16T10:53:52;35.76;31.21
68274;SHT30;55104;47.356;19.448;2022-08-16T10:57:00;35.31;29.47
68274;SHT30;55104;47.356;19.448;2022-08-16T11:00:08;35.90;29.08
68274;SHT30;55104;47.356;19.448;2022-08-16T11:03:23;36.08;28.05
68274;SHT30;55104;47.356;19.448;2022-08-16T11:06:45;35.62;27.68
68274;SHT30;55104;47.356;19.448;2022-08-16T11:10:15;36.21;27.99
68274;SHT30;55104;47.356;19.448;2022-08-16T11:13:23;36.04;27.53
68274;SHT30;55104;47.356;19.448;2022-08-16T11:16:46;35.51;28.20
68274;SHT30;55104;47.356;19.448;2022-08-16T11:20:10;35.96;28.68
68274;SHT30;55104;47.356;19.448;2022-08-16T11:23:34;35.42;28.58
68274;SHT30;55104;47.356;19.448;2022-08-16T11:26:38;36.06;27.58
68274;SHT30;55104;47.356;19.448;2022-08-16T11:29:40;35.94;26.03
68274;SHT30;55104;47.356;19.448;2022-08-16T11:32:43;36.10;26.23
68274;SHT30;55104;47.356;19.448;2022-08-16T11:35:46;35.83;26.55
68274;SHT30;55104;47.356;19.448;2022-08-16T11:39:08;35.17;27.20
68274;SHT30;55104;47.356;19.448;2022-08-16T11:42:12;34.97;29.15
68274;SHT30;55104;47.356;19.448;2022-08-16T11:45:31;34.38;31.68
68274;SHT30;55104;47.356;19.448;2022-08-16T11:48:35;33.77;32.26
68274;SHT30;55104;47.356;19.448;2022-08-16T11:51:39;33.70;32.81
68274;SHT30;55104;47.356;19.448;2022-08-16T11:54:44;33.39;32.53
68274;SHT30;55104;47.356;19.448;2022-08-16T11:57:57;32.88;34.00
68274;SHT30;55104;47.356;19.448;2022-08-16T12:01:02;32.70;34.49
68274;SHT30;55104;47.356;19.448;2022-08-16T12:04:05;32.43;35.55
68274;SHT30;55104;47.356;19.448;2022-08-16T12:07:07;32.59;35.33
68274;SHT30;55104;47.356;19.448;2022-08-16T12:10:16;32.82;34.46
68274;SHT30;55104;47.356;19.448;2022-08-16T12:13:18;33.29;34.23
68274;SHT30;55104;47.356;19.448;2022-08-16T12:16:22;33.84;31.49
68274;SHT30;55104;47.356;19.448;2022-08-16T12:19:32;34.28;30.35
68274;SHT30;55104;47.356;19.448;2022-08-16T12:22:37;34.86;31.54
68274;SHT30;55104;47.356;19.448;2022-08-16T12:25:39;35.61;31.29
68274;SHT30;55104;47.356;19.448;2022-08-16T12:28:42;36.14;29.39
68274;SHT30;55104;47.356;19.448;2022-08-16T12:31:56;36.23;28.08
68274;SHT30;55104;47.356;19.448;2022-08-16T12:35:03;36.44;27.78
68274;SHT30;55104;47.356;19.448;2022-08-16T12:38:08;36.06;27.12
68274;SHT30;55104;47.356;19.448;2022-08-16T12:41:31;36.11;26.81
68274;SHT30;55104;47.356;19.448;2022-08-16T12:44:36;36.23;27.63
68274;SHT30;55104;47.356;19.448;2022-08-16T12:47:40;36.40;27.37
68274;SHT30;55104;47.356;19.448;2022-08-16T12:51:23;36.41;26.28
68274;SHT30;55104;47.356;19.448;2022-08-16T12:54:47;35.63;27.04
68274;SHT30;55104;47.356;19.448;2022-08-16T12:57:56;35.21;28.69
68274;SHT30;55104;47.356;19.448;2022-08-16T13:01:03;34.97;28.98
68274;SHT30;55104;47.356;19.448;2022-08-16T13:04:06;35.08;28.88
68274;SHT30;55104;47.356;19.448;2022-08-16T13:07:20;34.76;29.65
68274;SHT30;55104;47.356;19.448;2022-08-16T13:10:30;34.46;30.50
68274;SHT30;55104;47.356;19.448;2022-08-16T13:13:38;33.91;30.76
68274;SHT30;55104;47.356;19.448;2022-08-16T13:16:41;34.00;30.58
68274;SHT30;55104;47.356;19.448;2022-08-16T13:19:47;33.93;30.66
68274;SHT30;55104;47.356;19.448;2022-08-16T13:23:11;33.60;30.92
68274;SHT30;55104;47.356;19.448;2022-08-16T13:26:17;33.42;31.12
68274;SHT30;55104;47.356;19.448;2022-08-16T13:29:19;33.47;31.33
68274;SHT30;55104;47.356;19.448;2022-08-16T13:32:23;33.80;30.96
68274;SHT30;55104;47.356;19.448;2022-08-16T13:35:43;33.80;30.86
68274;SHT30;55104;47.356;19.448;2022-08-16T13:38:48;33.86;31.08
68274;SHT30;55104;47.356;19.448;2022-08-16T13:41:52;34.01;30.56
68274;SHT30;55104;47.356;19.448;2022-08-16T13:44:55;34.41;29.79
68274;SHT30;55104;47.356;19.448;2022-08-16T13:47:59;34.67;29.09
68274;SHT30;55104;47.356;19.448;2022-08-16T13:51:06;35.17;28.02
68274;SHT30;55104;47.356;19.448;2022-08-16T13:54:08;35.19;27.55
68274;SHT30;55104;47.356;19.448;2022-08-16T13:57:10;35.59;26.86
68274;SHT30;55104;47.356;19.448;2022-08-16T14:00:19;35.87;27.70
68274;SHT30;55104;47.356;19.448;2022-08-16T14:03:23;35.59;27.16
68274;SHT30;55104;47.356;19.448;2022-08-16T14:06:25;35.30;26.05
68274;SHT30;55104;47.356;19.448;2022-08-16T14:09:30;35.56;26.87
68274;SHT30;55104;47.356;19.448;2022-08-16T14:12:35;35.44;26.06
68274;SHT30;55104;47.356;19.448;2022-08-16T14:15:37;35.61;26.13
68274;SHT30;55104;47.356;19.448;2022-08-16T14:18:42;35.49;26.96
68274;SHT30;55104;47.356;19.448;2022-08-16T14:21:47;35.63;26.88
68274;SHT30;55104;47.356;19.448;2022-08-16T14:25:13;35.61;26.56
68274;SHT30;55104;47.356;19.448;2022-08-16T14:28:18;35.51;27.40
68274;SHT30;55104;47.356;19.448;2022-08-16T14:31:24;35.51;26.44
68274;SHT30;55104;47.356;19.448;2022-08-16T14:34:28;35.19;26.54
68274;SHT30;55104;47.356;19.448;2022-08-16T14:37:30;35.06;27.53
68274;SHT30;55104;47.356;19.448;2022-08-16T14:40:36;35.33;28.84
68274;SHT30;55104;47.356;19.448;2022-08-16T14:43:38;35.41;27.56
68274;SHT30;55104;47.356;19.448;2022-08-16T14:46:40;35.25;27.55
68274;SHT30;55104;47.356;19.448;2022-08-16T14:49:43;35.33;27.01
68274;SHT30;55104;47.356;19.448;2022-08-16T14:53:11;35.13;27.25
68274;SHT30;55104;47.356;19.448;2022-08-16T14:56:10;35.39;27.54
68274;SHT30;55104;47.356;19.448;2022-08-16T14:59:32;35.44;27.32
68274;SHT30;55104;47.356;19.448;2022-08-16T15:02:42;35.53;27.10
68274;SHT30;55104;47.356;19.448;2022-08-16T15:05:46;35.27;27.19
68274;SHT30;55104;47.356;19.448;2022-08-16T15:08:49;35.25;27.82
68274;SHT30;55104;47.356;19.448;2022-08-16T15:11:51;35.00;27.89
68274;SHT30;55104;47.356;19.448;2022-08-16T15:14:54;34.87;27.77
68274;SHT30;55104;47.356;19.448;2022-08-16T15:17:57;35.13;28.77
68274;SHT30;55104;47.356;19.448;2022-08-16T15:21:04;35.19;28.88
68274;SHT30;55104;47.356;19.448;2022-08-16T15:24:09;35.08;29.05
68274;SHT30;55104;47.356;19.448;2022-08-16T15:27:17;35.13;29.42
68274;SHT30;55104;47.356;19.448;2022-08-16T15:30:23;35.19;29.28
68274;SHT30;55104;47.356;19.448;2022-08-16T15:33:47;34.76;29.53
68274;SHT30;55104;47.356;19.448;2022-08-16T15:36:59;34.57;29.53
68274;SHT30;55104;47.356;19.448;2022-08-16T15:40:13;34.35;30.20
68274;SHT30;55104;47.356;19.448;2022-08-16T15:43:36;34.14;30.54
68274;SHT30;55104;47.356;19.448;2022-08-16T15:46:41;33.94;30.26
68274;SHT30;55104;47.356;19.448;2022-08-16T15:50:01;33.64;31.46
68274;SHT30;55104;47.356;19.448;2022-08-16T15:53:10;33.21;32.84
68274;SHT30;55104;47.356;19.448;2022-08-16T15:56:13;33.14;32.47
68274;SHT30;55104;47.356;19.448;2022-08-16T15:59:16;32.78;32.78
68274;SHT30;55104;47.356;19.448;2022-08-16T16:02:20;32.50;33.50
68274;SHT30;55104;47.356;19.448;2022-08-16T16:05:33;32.23;34.38
68274;SHT30;55104;47.356;19.448;2022-08-16T16:08:36;31.98;34.46
68274;SHT30;55104;47.356;19.448;2022-08-16T16:11:43;31.58;34.64
68274;SHT30;55104;47.356;19.448;2022-08-16T16:14:46;31.25;34.73
68274;SHT30;55104;47.356;19.448;2022-08-16T16:17:49;31.09;34.81
68274;SHT30;55104;47.356;19.448;2022-08-16T16:21:09;30.74;35.45
68274;SHT30;55104;47.356;19.448;2022-08-16T16:24:21;30.57;35.61
68274;SHT30;55104;47.356;19.448;2022-08-16T16:27:32;30.33;36.40
68274;SHT30;55104;47.356;19.448;2022-08-16T16:30:35;30.18;36.69
68274;SHT30;55104;47.356;19.448;2022-08-16T16:33:47;29.99;37.12
68274;SHT30;55104;47.356;19.448;2022-08-16T16:36:51;29.97;36.74
68274;SHT30;55104;47.356;19.448;2022-08-16T16:44:52;29.68;36.63
68274;SHT30;55104;47.356;19.448;2022-08-16T16:48:03;29.52;35.44
68274;SHT30;55104;47.356;19.448;2022-08-16T16:51:14;29.38;35.83
68274;SHT30;55104;47.356;19.448;2022-08-16T16:54:18;29.27;35.42
68274;SHT30;55104;47.356;19.448;2022-08-16T16:57:29;29.17;35.61
68274;SHT30;55104;47.356;19.448;2022-08-16T17:00:52;29.13;35.57
68274;SHT30;55104;47.356;19.448;2022-08-16T17:04:01;29.10;35.83
68274;SHT30;55104;47.356;19.448;2022-08-16T17:07:14;29.08;35.37
68274;SHT30;55104;47.356;19.448;2022-08-16T17:10:17;29.17;35.04
68274;SHT30;55104;47.356;19.448;2022-08-16T17:13:41;29.17;35.26
68274;SHT30;55104;47.356;19.448;2022-08-16T17:16:44;29.11;34.66
68274;SHT30;55104;47.356;19.448;2022-08-16T17:19:48;29.16;33.58
68274;SHT30;55104;47.356;19.448;2022-08-16T17:22:53;29.24;32.77
68274;SHT30;55104;47.356;19.448;2022-08-16T17:25:55;29.23;32.78
68274;SHT30;55104;47.356;19.448;2022-08-16T17:28:59;29.33;33.07
68274;SHT30;55104;47.356;19.448;2022-08-16T17:32:14;29.30;34.37
68274;SHT30;55104;47.356;19.448;2022-08-16T17:35:40;29.24;35.71
68274;SHT30;55104;47.356;19.448;2022-08-16T17:38:56;29.07;36.24
68274;SHT30;55104;47.356;19.448;2022-08-16T17:42:04;28.95;37.79
68274;SHT30;55104;47.356;19.448;2022-08-16T17:45:09;28.82;38.49
68274;SHT30;55104;47.356;19.448;2022-08-16T17:48:11;28.68;38.64
68274;SHT30;55104;47.356;19.448;2022-08-16T17:51:13;28.59;38.73
68274;SHT30;55104;47.356;19.448;2022-08-16T17:54:15;28.55;38.60
68274;SHT30;55104;47.356;19.448;2022-08-16T17:57:31;28.38;39.30
68274;SHT30;55104;47.356;19.448;2022-08-16T18:00:38;28.37;39.12
68274;SHT30;55104;47.356;19.448;2022-08-16T18:03:41;28.31;39.23
68274;SHT30;55104;47.356;19.448;2022-08-16T18:07:03;28.24;38.94
68274;SHT30;55104;47.356;19.448;2022-08-16T18:10:07;28.20;39.10
68274;SHT30;55104;47.356;19.448;2022-08-16T18:13:10;28.11;38.34
68274;SHT30;55104;47.356;19.448;2022-08-16T18:16:14;27.98;39.88
68274;SHT30;55104;47.356;19.448;2022-08-16T18:19:17;27.92;38.50
68274;SHT30;55104;47.356;19.448;2022-08-16T18:22:24;27.82;40.17
68274;SHT30;55104;47.356;19.448;2022-08-16T18:25:32;27.65;40.69
68274;SHT30;55104;47.356;19.448;2022-08-16T18:28:34;27.58;40.34
68274;SHT30;55104;47.356;19.448;2022-08-16T18:31:38;27.51;41.70
68274;SHT30;55104;47.356;19.448;2022-08-16T18:34:41;27.43;42.61
68274;SHT30;55104;47.356;19.448;2022-08-16T18:37:43;27.30;43.16
68274;SHT30;55104;47.356;19.448;2022-08-16T18:40:46;27.12;43.24
68274;SHT30;55104;47.356;19.448;2022-08-16T18:43:49;27.06;43.49
68274;SHT30;55104;47.356;19.448;2022-08-16T18:47:12;27.01;43.14
68274;SHT30;55104;47.356;19.448;2022-08-16T18:50:15;27.15;43.10
68274;SHT30;55104;47.356;19.448;2022-08-16T18:53:20;27.06;44.11
68274;SHT30;55104;47.356;19.448;2022-08-16T18:56:22;27.18;44.89
68274;SHT30;55104;47.356;19.448;2022-08-16T18:59:44;27.32;45.55
68274;SHT30;55104;47.356;19.448;2022-08-16T19:02:47;27.31;45.93
68274;SHT30;55104;47.356;19.448;2022-08-16T19:06:03;27.21;45.98
68274;SHT30;55104;47.356;19.448;2022-08-16T19:09:06;27.10;46.11
68274;SHT30;55104;47.356;19.448;2022-08-16T19:12:08;27.01;46.16
68274;SHT30;55104;47.356;19.448;2022-08-16T19:15:15;27.00;45.39
68274;SHT30;55104;47.356;19.448;2022-08-16T19:18:18;26.98;44.91
68274;SHT30;55104;47.356;19.448;2022-08-16T19:21:20;27.01;44.48
68274;SHT30;55104;47.356;19.448;2022-08-16T19:24:22;27.00;44.01
68274;SHT30;55104;47.356;19.448;2022-08-16T19:27:30;27.04;44.23
68274;SHT30;55104;47.356;19.448;2022-08-16T19:30:35;26.97;44.27
68274;SHT30;55104;47.356;19.448;2022-08-16T19:33:39;26.93;44.88
68274;SHT30;55104;47.356;19.448;2022-08-16T19:36:57;26.90;45.52
68274;SHT30;55104;47.356;19.448;2022-08-16T19:39:59;26.87;45.94
68274;SHT30;55104;47.356;19.448;2022-08-16T19:43:01;26.83;44.78